sensor_id;sensor_type;location;lat;lon;timestamp;pressure;altitude;pressure_sealevel;temperature;humidity
55990;BME280;41875;55.806;38.082;2023-02-03T00:01:45;98657.53;;;1.03;61.34
55990;BME280;41875;55.806;38.082;2023-02-03T00:04:14;98662.59;;;1.39;60.73
55990;BME280;41875;55.806;38.082;2023-02-03T00:06:42;98652.06;;;1.06;60.78
55990;BME280;41875;55.806;38.082;2023-02-03T00:09:13;98660.63;;;1.08;60.91
55990;BME280;41875;55.806;38.082;2023-02-03T00:11:42;98653.72;;;0.84;62.17
55990;BME280;41875;55.806;38.082;2023-02-03T00:14:10;98660.50;;;0.98;61.36
55990;BME280;41875;55.806;38.082;2023-02-03T00:16:39;98655.88;;;0.79;62.02
55990;BME280;41875;55.806;38.082;2023-02-03T00:19:07;98654.09;;;0.80;61.87
55990;BME280;41875;55.806;38.082;2023-02-03T00:21:36;98650.97;;;0.40;62.91
55990;BME280;41875;55.806;38.082;2023-02-03T00:24:04;98643.16;;;1.09;61.50
55990;BME280;41875;55.806;38.082;2023-02-03T00:26:59;98648.06;;;0.90;62.24
55990;BME280;41875;55.806;38.082;2023-02-03T00:29:28;98645.53;;;1.34;60.40
55990;BME280;41875;55.806;38.082;2023-02-03T00:31:56;98648.84;;;1.25;60.57
55990;BME280;41875;55.806;38.082;2023-02-03T00:34:27;98636.84;;;1.34;60.44
55990;BME280;41875;55.806;38.082;2023-02-03T00:36:56;98635.34;;;1.31;60.39
55990;BME280;41875;55.806;38.082;2023-02-03T00:39:25;98648.22;;;1.44;60.56
55990;BME280;41875;55.806;38.082;2023-02-03T00:41:55;98645.53;;;0.55;63.03
55990;BME280;41875;55.806;38.082;2023-02-03T00:44:24;98640.81;;;0.60;62.88
55990;BME280;41875;55.806;38.082;2023-02-03T00:46:53;98646.25;;;1.14;61.67
55990;BME280;41875;55.806;38.082;2023-02-03T00:49:22;98639.50;;;1.00;61.51
55990;BME280;41875;55.806;38.082;2023-02-03T00:51:50;98646.22;;;1.48;60.26
55990;BME280;41875;55.806;38.082;2023-02-03T00:54:19;98650.63;;;1.36;60.62
55990;BME280;41875;55.806;38.082;2023-02-03T00:56:48;98649.31;;;1.30;60.79
55990;BME280;41875;55.806;38.082;2023-02-03T00:59:16;98643.25;;;1.41;60.38
55990;BME280;41875;55.806;38.082;2023-02-03T01:01:47;98652.16;;;1.39;60.56
55990;BME280;41875;55.806;38.082;2023-02-03T01:04:19;98640.22;;;1.25;60.32
55990;BME280;41875;55.806;38.082;2023-02-03T01:06:47;98645.16;;;1.39;61.23
55990;BME280;41875;55.806;38.082;2023-02-03T01:09:18;98652.91;;;1.06;61.86
55990;BME280;41875;55.806;38.082;2023-02-03T01:11:46;98646.66;;;1.53;60.63
55990;BME280;41875;55.806;38.082;2023-02-03T01:14:15;98647.91;;;1.26;61.77
55990;BME280;41875;55.806;38.082;2023-02-03T01:16:43;98646.81;;;1.29;60.79
55990;BME280;41875;55.806;38.082;2023-02-03T01:19:13;98642.13;;;0.88;62.39
55990;BME280;41875;55.806;38.082;2023-02-03T01:21:43;98641.28;;;0.54;64.07
55990;BME280;41875;55.806;38.082;2023-02-03T01:24:11;98639.16;;;0.70;63.40
55990;BME280;41875;55.806;38.082;2023-02-03T01:26:41;98633.47;;;0.88;63.45
55990;BME280;41875;55.806;38.082;2023-02-03T01:29:10;98629.06;;;1.23;62.10
55990;BME280;41875;55.806;38.082;2023-02-03T01:31:40;98634.75;;;1.28;62.04
55990;BME280;41875;55.806;38.082;2023-02-03T01:34:11;98634.75;;;1.05;62.83
55990;BME280;41875;55.806;38.082;2023-02-03T01:36:44;98633.34;;;1.01;63.09
55990;BME280;41875;55.806;38.082;2023-02-03T01:39:13;98626.34;;;1.13;62.68
55990;BME280;41875;55.806;38.082;2023-02-03T01:41:42;98630.34;;;1.28;62.36
55990;BME280;41875;55.806;38.082;2023-02-03T01:44:34;98628.81;;;1.14;62.15
55990;BME280;41875;55.806;38.082;2023-02-03T01:47:13;98627.06;;;0.69;63.73
55990;BME280;41875;55.806;38.082;2023-02-03T01:49:47;98634.06;;;0.57;64.21
55990;BME280;41875;55.806;38.082;2023-02-03T01:52:19;98635.56;;;0.37;65.12
55990;BME280;41875;55.806;38.082;2023-02-03T01:54:51;98627.88;;;0.47;64.66
55990;BME280;41875;55.806;38.082;2023-02-03T01:57:25;98623.53;;;0.01;66.05
55990;BME280;41875;55.806;38.082;2023-02-03T01:59:56;98617.69;;;0.44;65.52
55990;BME280;41875;55.806;38.082;2023-02-03T02:02:27;98619.84;;;0.84;64.55
55990;BME280;41875;55.806;38.082;2023-02-03T02:05:02;98613.56;;;0.87;64.10
55990;BME280;41875;55.806;38.082;2023-02-03T02:07:36;98624.47;;;0.81;64.33
55990;BME280;41875;55.806;38.082;2023-02-03T02:10:06;98622.69;;;0.70;63.91
55990;BME280;41875;55.806;38.082;2023-02-03T02:12:34;98630.47;;;1.15;63.19
55990;BME280;41875;55.806;38.082;2023-02-03T02:15:04;98627.91;;;0.93;63.45
55990;BME280;41875;55.806;38.082;2023-02-03T02:17:50;98619.13;;;0.48;64.85
55990;BME280;41875;55.806;38.082;2023-02-03T02:23:35;98612.59;;;1.11;63.89
55990;BME280;41875;55.806;38.082;2023-02-03T02:26:46;98613.69;;;0.74;65.12
55990;BME280;41875;55.806;38.082;2023-02-03T02:32:29;98614.50;;;0.63;65.58
55990;BME280;41875;55.806;38.082;2023-02-03T02:35:05;98607.63;;;0.85;64.84
55990;BME280;41875;55.806;38.082;2023-02-03T02:37:47;98600.75;;;0.27;65.79
55990;BME280;41875;55.806;38.082;2023-02-03T03:45:05;98613.22;;;0.80;65.15
55990;BME280;41875;55.806;38.082;2023-02-03T03:47:40;98600.63;;;1.08;64.15
55990;BME280;41875;55.806;38.082;2023-02-03T03:50:16;98618.91;;;0.74;65.71
55990;BME280;41875;55.806;38.082;2023-02-03T03:54:16;98610.38;;;0.95;65.31
55990;BME280;41875;55.806;38.082;2023-02-03T03:57:46;98583.59;;;0.47;66.19
55990;BME280;41875;55.806;38.082;2023-02-03T04:03:57;98603.63;;;0.58;66.60
55990;BME280;41875;55.806;38.082;2023-02-03T04:06:45;98597.22;;;0.85;65.09
55990;BME280;41875;55.806;38.082;2023-02-03T04:09:23;98607.06;;;0.81;65.71
55990;BME280;41875;55.806;38.082;2023-02-03T04:11:52;98616.16;;;0.53;66.56
55990;BME280;41875;55.806;38.082;2023-02-03T04:14:33;98602.63;;;0.36;68.08
55990;BME280;41875;55.806;38.082;2023-02-03T04:17:07;98613.91;;;0.71;66.24
55990;BME280;41875;55.806;38.082;2023-02-03T04:19:37;98613.31;;;0.44;66.66
55990;BME280;41875;55.806;38.082;2023-02-03T04:22:06;98607.50;;;1.09;65.29
55990;BME280;41875;55.806;38.082;2023-02-03T04:24:37;98618.44;;;0.80;65.52
55990;BME280;41875;55.806;38.082;2023-02-03T04:27:06;98613.44;;;1.00;65.38
55990;BME280;41875;55.806;38.082;2023-02-03T04:29:35;98616.53;;;0.82;65.97
55990;BME280;41875;55.806;38.082;2023-02-03T04:32:03;98615.69;;;1.04;65.39
55990;BME280;41875;55.806;38.082;2023-02-03T04:34:59;98614.59;;;1.18;64.90
55990;BME280;41875;55.806;38.082;2023-02-03T04:37:34;98610.97;;;0.75;65.79
55990;BME280;41875;55.806;38.082;2023-02-03T04:40:03;98601.00;;;0.81;65.71
55990;BME280;41875;55.806;38.082;2023-02-03T04:42:32;98615.47;;;0.85;66.09
55990;BME280;41875;55.806;38.082;2023-02-03T04:45:16;98615.22;;;0.76;67.10
55990;BME280;41875;55.806;38.082;2023-02-03T04:47:59;98605.59;;;1.00;65.09
55990;BME280;41875;55.806;38.082;2023-02-03T04:50:32;98610.50;;;0.70;66.76
55990;BME280;41875;55.806;38.082;2023-02-03T04:53:03;98611.78;;;0.87;66.74
55990;BME280;41875;55.806;38.082;2023-02-03T04:55:32;98612.03;;;0.73;66.74
55990;BME280;41875;55.806;38.082;2023-02-03T04:58:01;98611.06;;;0.85;66.89
55990;BME280;41875;55.806;38.082;2023-02-03T05:00:29;98615.94;;;1.45;65.07
55990;BME280;41875;55.806;38.082;2023-02-03T05:02:58;98600.44;;;0.66;67.15
55990;BME280;41875;55.806;38.082;2023-02-03T05:05:26;98625.50;;;1.24;66.24
55990;BME280;41875;55.806;38.082;2023-02-03T05:07:56;98616.38;;;1.18;65.57
55990;BME280;41875;55.806;38.082;2023-02-03T05:10:25;98612.25;;;0.58;67.20
55990;BME280;41875;55.806;38.082;2023-02-03T05:12:54;98619.00;;;1.18;65.89
55990;BME280;41875;55.806;38.082;2023-02-03T05:15:22;98627.97;;;1.25;66.02
55990;BME280;41875;55.806;38.082;2023-02-03T05:17:54;98626.41;;;1.34;65.74
55990;BME280;41875;55.806;38.082;2023-02-03T05:20:24;98627.53;;;1.64;64.39
55990;BME280;41875;55.806;38.082;2023-02-03T05:22:58;98610.72;;;1.57;64.62
55990;BME280;41875;55.806;38.082;2023-02-03T05:25:27;98627.59;;;1.30;65.04
55990;BME280;41875;55.806;38.082;2023-02-03T05:28:01;98617.28;;;1.40;64.52
55990;BME280;41875;55.806;38.082;2023-02-03T05:30:30;98610.38;;;1.50;64.26
55990;BME280;41875;55.806;38.082;2023-02-03T05:32:58;98628.41;;;1.42;64.84
55990;BME280;41875;55.806;38.082;2023-02-03T05:35:27;98623.50;;;1.92;64.05
55990;BME280;41875;55.806;38.082;2023-02-03T05:37:55;98614.03;;;1.59;64.28
55990;BME280;41875;55.806;38.082;2023-02-03T05:40:27;98626.97;;;0.94;66.51
55990;BME280;41875;55.806;38.082;2023-02-03T05:43:16;98620.25;;;1.35;65.46
55990;BME280;41875;55.806;38.082;2023-02-03T05:45:48;98628.22;;;1.66;64.77
55990;BME280;41875;55.806;38.082;2023-02-03T05:48:17;98620.06;;;1.59;64.53
55990;BME280;41875;55.806;38.082;2023-02-03T05:51:54;98615.56;;;1.06;65.88
55990;BME280;41875;55.806;38.082;2023-02-03T05:55:46;98594.63;;;1.29;65.04
55990;BME280;41875;55.806;38.082;2023-02-03T05:58:17;98605.66;;;1.97;63.26
55990;BME280;41875;55.806;38.082;2023-02-03T06:02:01;98594.78;;;1.92;62.69
55990;BME280;41875;55.806;38.082;2023-02-03T06:32:40;98624.09;;;1.63;64.13
55990;BME280;41875;55.806;38.082;2023-02-03T06:35:37;98606.25;;;1.36;65.19
55990;BME280;41875;55.806;38.082;2023-02-03T06:39:00;98630.13;;;1.31;65.81
55990;BME280;41875;55.806;38.082;2023-02-03T06:41:31;98623.53;;;2.13;63.76
55990;BME280;41875;55.806;38.082;2023-02-03T06:44:06;98636.34;;;2.17;63.07
55990;BME280;41875;55.806;38.082;2023-02-03T06:46:35;98620.84;;;2.04;63.50
55990;BME280;41875;55.806;38.082;2023-02-03T06:49:05;98639.91;;;1.83;64.14
55990;BME280;41875;55.806;38.082;2023-02-03T06:51:35;98640.47;;;2.19;63.48
55990;BME280;41875;55.806;38.082;2023-02-03T06:54:04;98636.75;;;2.01;63.96
55990;BME280;41875;55.806;38.082;2023-02-03T06:56:43;98638.34;;;2.13;63.74
55990;BME280;41875;55.806;38.082;2023-02-03T06:59:11;98640.53;;;2.29;63.24
55990;BME280;41875;55.806;38.082;2023-02-03T07:06:14;98619.69;;;2.39;62.98
55990;BME280;41875;55.806;38.082;2023-02-03T07:11:40;98592.03;;;2.67;62.04
55990;BME280;41875;55.806;38.082;2023-02-03T07:14:40;98613.78;;;1.83;63.91
55990;BME280;41875;55.806;38.082;2023-02-03T07:17:34;98592.72;;;1.96;64.85
55990;BME280;41875;55.806;38.082;2023-02-03T07:20:07;98628.56;;;2.57;63.18
55990;BME280;41875;55.806;38.082;2023-02-03T07:23:06;98648.25;;;2.31;64.87
55990;BME280;41875;55.806;38.082;2023-02-03T07:26:42;98648.63;;;2.47;64.09
55990;BME280;41875;55.806;38.082;2023-02-03T07:35:14;98623.75;;;2.53;64.11
55990;BME280;41875;55.806;38.082;2023-02-03T08:55:43;98603.00;;;2.92;62.43
55990;BME280;41875;55.806;38.082;2023-02-03T08:58:18;98616.97;;;3.12;62.49
55990;BME280;41875;55.806;38.082;2023-02-03T09:01:24;98605.06;;;2.36;64.20
55990;BME280;41875;55.806;38.082;2023-02-03T09:04:05;98584.97;;;2.58;63.98
55990;BME280;41875;55.806;38.082;2023-02-03T09:06:47;98620.00;;;3.08;63.38
55990;BME280;41875;55.806;38.082;2023-02-03T09:09:32;98591.84;;;2.90;63.03
55990;BME280;41875;55.806;38.082;2023-02-03T09:12:18;98605.47;;;3.44;61.52
55990;BME280;41875;55.806;38.082;2023-02-03T09:15:03;98630.16;;;3.61;60.78
55990;BME280;41875;55.806;38.082;2023-02-03T09:17:56;98608.28;;;3.12;62.36
55990;BME280;41875;55.806;38.082;2023-02-03T09:20:28;98631.28;;;3.69;60.58
55990;BME280;41875;55.806;38.082;2023-02-03T09:22:58;98629.88;;;3.64;60.87
55990;BME280;41875;55.806;38.082;2023-02-03T09:25:26;98620.63;;;3.60;61.75
55990;BME280;41875;55.806;38.082;2023-02-03T09:27:57;98606.59;;;3.71;61.00
55990;BME280;41875;55.806;38.082;2023-02-03T09:30:30;98574.97;;;3.14;61.61
55990;BME280;41875;55.806;38.082;2023-02-03T09:33:17;98585.19;;;2.76;62.85
55990;BME280;41875;55.806;38.082;2023-02-03T09:36:19;98600.94;;;3.66;60.88
55990;BME280;41875;55.806;38.082;2023-02-03T09:39:21;98599.00;;;3.78;60.88
55990;BME280;41875;55.806;38.082;2023-02-03T09:42:12;98591.25;;;3.37;61.24
55990;BME280;41875;55.806;38.082;2023-02-03T09:45:23;98607.84;;;3.96;60.12
55990;BME280;41875;55.806;38.082;2023-02-03T09:47:53;98560.97;;;3.44;60.78
55990;BME280;41875;55.806;38.082;2023-02-03T09:50:26;98611.25;;;3.87;59.88
55990;BME280;41875;55.806;38.082;2023-02-03T09:52:56;98606.19;;;3.86;59.96
55990;BME280;41875;55.806;38.082;2023-02-03T09:55:29;98605.88;;;3.30;61.64
55990;BME280;41875;55.806;38.082;2023-02-03T09:58:04;98611.97;;;3.60;60.88
55990;BME280;41875;55.806;38.082;2023-02-03T10:00:42;98585.56;;;4.30;58.79
55990;BME280;41875;55.806;38.082;2023-02-03T10:03:21;98608.53;;;4.56;58.76
55990;BME280;41875;55.806;38.082;2023-02-03T10:06:08;98609.13;;;4.50;58.91
55990;BME280;41875;55.806;38.082;2023-02-03T10:09:13;98606.97;;;4.73;57.88
55990;BME280;41875;55.806;38.082;2023-02-03T10:11:56;98574.22;;;4.39;58.13
55990;BME280;41875;55.806;38.082;2023-02-03T10:14:46;98614.63;;;4.56;59.00
55990;BME280;41875;55.806;38.082;2023-02-03T10:17:28;98600.78;;;4.17;60.20
55990;BME280;41875;55.806;38.082;2023-02-03T10:20:03;98604.09;;;4.19;59.69
55990;BME280;41875;55.806;38.082;2023-02-03T10:22:36;98598.34;;;4.53;59.25
55990;BME280;41875;55.806;38.082;2023-02-03T10:25:16;98595.78;;;4.71;58.88
55990;BME280;41875;55.806;38.082;2023-02-03T10:27:52;98602.56;;;5.01;58.26
55990;BME280;41875;55.806;38.082;2023-02-03T10:30:26;98596.97;;;5.14;56.88
55990;BME280;41875;55.806;38.082;2023-02-03T10:33:00;98590.28;;;5.84;56.07
55990;BME280;41875;55.806;38.082;2023-02-03T10:35:48;98597.13;;;5.13;57.32
55990;BME280;41875;55.806;38.082;2023-02-03T10:38:40;98596.94;;;4.96;57.96
55990;BME280;41875;55.806;38.082;2023-02-03T10:41:17;98599.97;;;4.92;58.24
55990;BME280;41875;55.806;38.082;2023-02-03T10:43:46;98593.63;;;4.56;59.17
55990;BME280;41875;55.806;38.082;2023-02-03T10:49:28;98592.66;;;4.67;58.64
55990;BME280;41875;55.806;38.082;2023-02-03T10:52:00;98582.78;;;5.07;58.08
55990;BME280;41875;55.806;38.082;2023-02-03T10:54:32;98593.22;;;5.17;57.53
55990;BME280;41875;55.806;38.082;2023-02-03T10:57:09;98590.41;;;5.64;56.33
55990;BME280;41875;55.806;38.082;2023-02-03T10:59:41;98578.94;;;5.47;56.03
55990;BME280;41875;55.806;38.082;2023-02-03T11:02:21;98587.09;;;5.26;57.07
55990;BME280;41875;55.806;38.082;2023-02-03T11:05:19;98586.34;;;4.40;59.47
55990;BME280;41875;55.806;38.082;2023-02-03T11:07:48;98585.31;;;4.14;59.63
55990;BME280;41875;55.806;38.082;2023-02-03T11:10:35;98581.19;;;4.11;60.25
55990;BME280;41875;55.806;38.082;2023-02-03T11:13:19;98580.25;;;3.92;60.93
55990;BME280;41875;55.806;38.082;2023-02-03T11:15:53;98585.00;;;4.36;60.04
55990;BME280;41875;55.806;38.082;2023-02-03T11:18:36;98586.28;;;4.12;60.36
55990;BME280;41875;55.806;38.082;2023-02-03T11:21:10;98580.25;;;3.92;60.93
55990;BME280;41875;55.806;38.082;2023-02-03T11:23:52;98583.56;;;3.85;61.09
55990;BME280;41875;55.806;38.082;2023-02-03T11:26:24;98578.03;;;4.07;60.84
55990;BME280;41875;55.806;38.082;2023-02-03T11:28:56;98576.25;;;3.98;60.90
55990;BME280;41875;55.806;38.082;2023-02-03T11:31:28;98583.72;;;3.63;62.01
55990;BME280;41875;55.806;38.082;2023-02-03T11:34:01;98576.34;;;4.16;60.84
55990;BME280;41875;55.806;38.082;2023-02-03T11:36:34;98576.78;;;4.59;59.19
55990;BME280;41875;55.806;38.082;2023-02-03T11:39:26;98587.94;;;4.71;59.35
55990;BME280;41875;55.806;38.082;2023-02-03T11:41:57;98583.38;;;4.16;60.39
55990;BME280;41875;55.806;38.082;2023-02-03T11:44:27;98589.09;;;4.49;59.63
55990;BME280;41875;55.806;38.082;2023-02-03T11:47:00;98577.91;;;5.12;57.76
55990;BME280;41875;55.806;38.082;2023-02-03T11:52:47;98573.81;;;5.28;57.26
55990;BME280;41875;55.806;38.082;2023-02-03T11:55:32;98573.63;;;4.55;58.65
55990;BME280;41875;55.806;38.082;2023-02-03T11:58:17;98572.22;;;4.61;58.83
55990;BME280;41875;55.806;38.082;2023-02-03T12:00:53;98574.19;;;5.33;56.82
55990;BME280;41875;55.806;38.082;2023-02-03T12:03:42;98564.16;;;4.72;58.25
55990;BME280;41875;55.806;38.082;2023-02-03T12:06:27;98571.31;;;4.80;58.24
55990;BME280;41875;55.806;38.082;2023-02-03T12:09:04;98572.69;;;5.30;57.09
55990;BME280;41875;55.806;38.082;2023-02-03T12:11:52;98566.28;;;5.15;57.49
55990;BME280;41875;55.806;38.082;2023-02-03T12:14:38;98568.56;;;5.28;56.96
55990;BME280;41875;55.806;38.082;2023-02-03T12:17:31;98560.16;;;5.42;56.73
55990;BME280;41875;55.806;38.082;2023-02-03T12:20:23;98567.75;;;5.27;56.96
55990;BME280;41875;55.806;38.082;2023-02-03T12:23:03;98562.91;;;5.04;57.66
55990;BME280;41875;55.806;38.082;2023-02-03T12:25:53;98575.44;;;5.11;57.61
55990;BME280;41875;55.806;38.082;2023-02-03T12:28:40;98568.94;;;5.33;56.95
55990;BME280;41875;55.806;38.082;2023-02-03T12:31:19;98562.09;;;5.22;56.82
55990;BME280;41875;55.806;38.082;2023-02-03T12:34:05;98567.28;;;4.86;57.65
55990;BME280;41875;55.806;38.082;2023-02-03T12:36:46;98557.81;;;4.75;58.11
55990;BME280;41875;55.806;38.082;2023-02-03T12:39:20;98564.56;;;5.06;57.39
55990;BME280;41875;55.806;38.082;2023-02-03T12:41:59;98563.31;;;5.28;56.49
55990;BME280;41875;55.806;38.082;2023-02-03T12:44:36;98554.97;;;5.14;56.82
55990;BME280;41875;55.806;38.082;2023-02-03T12:47:13;98564.00;;;5.30;56.61
55990;BME280;41875;55.806;38.082;2023-02-03T12:49:49;98547.44;;;5.01;57.15
55990;BME280;41875;55.806;38.082;2023-02-03T12:52:24;98559.31;;;5.06;57.54
55990;BME280;41875;55.806;38.082;2023-02-03T12:55:03;98553.59;;;5.10;57.36
55990;BME280;41875;55.806;38.082;2023-02-03T12:57:43;98553.59;;;5.10;57.40
55990;BME280;41875;55.806;38.082;2023-02-03T13:00:24;98559.94;;;4.90;58.01
55990;BME280;41875;55.806;38.082;2023-02-03T13:03:05;98558.28;;;4.61;58.68
55990;BME280;41875;55.806;38.082;2023-02-03T13:05:40;98564.34;;;4.61;58.87
55990;BME280;41875;55.806;38.082;2023-02-03T13:08:15;98562.72;;;4.50;59.29
55990;BME280;41875;55.806;38.082;2023-02-03T13:10:50;98560.31;;;4.29;59.76
55990;BME280;41875;55.806;38.082;2023-02-03T13:13:31;98556.78;;;4.48;59.53
55990;BME280;41875;55.806;38.082;2023-02-03T13:16:08;98564.44;;;4.32;60.08
55990;BME280;41875;55.806;38.082;2023-02-03T13:18:42;98561.19;;;4.20;60.21
55990;BME280;41875;55.806;38.082;2023-02-03T13:21:13;98566.97;;;4.04;60.40
55990;BME280;41875;55.806;38.082;2023-02-03T13:23:44;98565.06;;;4.06;60.65
55990;BME280;41875;55.806;38.082;2023-02-03T13:26:28;98564.75;;;4.29;60.04
55990;BME280;41875;55.806;38.082;2023-02-03T13:29:10;98569.34;;;4.07;60.48
55990;BME280;41875;55.806;38.082;2023-02-03T13:31:57;98551.56;;;4.01;60.71
55990;BME280;41875;55.806;38.082;2023-02-03T13:40:32;98567.41;;;3.89;61.28
55990;BME280;41875;55.806;38.082;2023-02-03T13:43:11;98556.13;;;3.89;61.06
55990;BME280;41875;55.806;38.082;2023-02-03T13:46:06;98564.25;;;3.76;61.52
55990;BME280;41875;55.806;38.082;2023-02-03T13:48:46;98558.91;;;3.77;61.19
55990;BME280;41875;55.806;38.082;2023-02-03T13:51:20;98566.59;;;3.69;61.66
55990;BME280;41875;55.806;38.082;2023-02-03T13:53:51;98566.75;;;3.48;62.45
55990;BME280;41875;55.806;38.082;2023-02-03T13:56:26;98565.50;;;3.42;62.28
55990;BME280;41875;55.806;38.082;2023-02-03T13:59:03;98570.59;;;3.24;63.20
55990;BME280;41875;55.806;38.082;2023-02-03T14:01:35;98566.97;;;3.05;63.80
55990;BME280;41875;55.806;38.082;2023-02-03T14:04:05;98573.50;;;3.31;63.15
55990;BME280;41875;55.806;38.082;2023-02-03T14:07:25;98572.66;;;3.30;63.68
55990;BME280;41875;55.806;38.082;2023-02-03T14:10:14;98564.78;;;3.20;63.87
55990;BME280;41875;55.806;38.082;2023-02-03T14:12:56;98571.16;;;3.47;63.01
55990;BME280;41875;55.806;38.082;2023-02-03T14:15:31;98568.75;;;3.15;63.96
55990;BME280;41875;55.806;38.082;2023-02-03T14:18:32;98556.53;;;3.15;64.08
55990;BME280;41875;55.806;38.082;2023-02-03T14:21:20;98577.06;;;3.30;63.91
55990;BME280;41875;55.806;38.082;2023-02-03T14:23:54;98560.25;;;3.23;63.83
55990;BME280;41875;55.806;38.082;2023-02-03T14:26:38;98566.44;;;3.31;63.80
55990;BME280;41875;55.806;38.082;2023-02-03T14:29:10;98567.97;;;3.24;64.27
55990;BME280;41875;55.806;38.082;2023-02-03T14:31:56;98571.69;;;3.31;64.34
55990;BME280;41875;55.806;38.082;2023-02-03T14:34:37;98562.69;;;3.04;64.94
55990;BME280;41875;55.806;38.082;2023-02-03T14:37:16;98563.69;;;3.13;65.37
55990;BME280;41875;55.806;38.082;2023-02-03T14:40:19;98572.78;;;3.29;64.61
55990;BME280;41875;55.806;38.082;2023-02-03T14:43:02;98572.69;;;2.89;66.12
55990;BME280;41875;55.806;38.082;2023-02-03T14:45:51;98573.19;;;2.73;67.28
55990;BME280;41875;55.806;38.082;2023-02-03T14:48:42;98558.03;;;2.67;67.07
55990;BME280;41875;55.806;38.082;2023-02-03T14:51:29;98571.34;;;2.54;68.39
55990;BME280;41875;55.806;38.082;2023-02-03T14:54:18;98570.06;;;2.89;67.50
55990;BME280;41875;55.806;38.082;2023-02-03T14:57:08;98563.06;;;2.90;66.89
55990;BME280;41875;55.806;38.082;2023-02-03T14:59:43;98571.84;;;3.30;65.35
55990;BME280;41875;55.806;38.082;2023-02-03T15:02:19;98561.31;;;3.00;66.26
55990;BME280;41875;55.806;38.082;2023-02-03T15:04:51;98570.19;;;2.78;67.58
55990;BME280;41875;55.806;38.082;2023-02-03T15:07:39;98563.22;;;2.98;67.04
55990;BME280;41875;55.806;38.082;2023-02-03T15:10:13;98562.72;;;3.14;66.04
55990;BME280;41875;55.806;38.082;2023-02-03T15:12:56;98559.31;;;2.83;66.65
55990;BME280;41875;55.806;38.082;2023-02-03T15:15:27;98569.94;;;2.81;67.46
55990;BME280;41875;55.806;38.082;2023-02-03T15:18:25;98551.19;;;2.76;67.70
55990;BME280;41875;55.806;38.082;2023-02-03T15:21:16;98519.91;;;2.65;67.26
55990;BME280;41875;55.806;38.082;2023-02-03T15:23:48;98551.13;;;2.56;67.94
55990;BME280;41875;55.806;38.082;2023-02-03T15:26:21;98562.53;;;2.55;68.17
55990;BME280;41875;55.806;38.082;2023-02-03T15:28:54;98571.34;;;2.54;68.88
55990;BME280;41875;55.806;38.082;2023-02-03T15:31:27;98578.34;;;2.54;68.93
55990;BME280;41875;55.806;38.082;2023-02-03T15:34:03;98570.50;;;2.54;69.08
55990;BME280;41875;55.806;38.082;2023-02-03T15:36:38;98571.47;;;2.53;69.17
55990;BME280;41875;55.806;38.082;2023-02-03T15:39:59;98568.56;;;2.25;69.56
55990;BME280;41875;55.806;38.082;2023-02-03T15:42:59;98556.72;;;2.93;67.46
55990;BME280;41875;55.806;38.082;2023-02-03T15:46:02;98556.88;;;2.50;68.86
55990;BME280;41875;55.806;38.082;2023-02-03T15:48:39;98567.41;;;2.70;68.43
55990;BME280;41875;55.806;38.082;2023-02-03T15:51:17;98577.84;;;2.60;69.18
55990;BME280;41875;55.806;38.082;2023-02-03T15:54:04;98575.88;;;2.52;69.09
55990;BME280;41875;55.806;38.082;2023-02-03T15:56:43;98575.81;;;2.42;69.96
55990;BME280;41875;55.806;38.082;2023-02-03T15:59:25;98564.75;;;2.29;69.46
55990;BME280;41875;55.806;38.082;2023-02-03T16:01:59;98570.28;;;2.67;68.69
55990;BME280;41875;55.806;38.082;2023-02-03T16:04:29;98581.50;;;2.88;68.08
55990;BME280;41875;55.806;38.082;2023-02-03T16:06:58;98586.44;;;2.51;69.28
55990;BME280;41875;55.806;38.082;2023-02-03T16:09:32;98577.56;;;2.63;68.58
55990;BME280;41875;55.806;38.082;2023-02-03T16:12:22;98585.38;;;2.84;68.60
55990;BME280;41875;55.806;38.082;2023-02-03T16:14:56;98586.72;;;2.05;70.67
55990;BME280;41875;55.806;38.082;2023-02-03T16:17:31;98585.50;;;2.31;70.01
55990;BME280;41875;55.806;38.082;2023-02-03T16:20:36;98574.94;;;2.32;69.71
55990;BME280;41875;55.806;38.082;2023-02-03T16:23:20;98578.56;;;2.41;70.06
55990;BME280;41875;55.806;38.082;2023-02-03T16:29:14;98573.78;;;2.46;69.14
55990;BME280;41875;55.806;38.082;2023-02-03T16:32:17;98560.44;;;2.18;70.08
55990;BME280;41875;55.806;38.082;2023-02-03T16:35:28;98541.94;;;1.67;70.64
55990;BME280;41875;55.806;38.082;2023-02-03T16:39:42;98559.84;;;2.36;68.96
55990;BME280;41875;55.806;38.082;2023-02-03T16:41:43;98566.91;;;2.24;69.38
55990;BME280;41875;55.806;38.082;2023-02-03T16:44:41;98589.91;;;2.51;69.46
55990;BME280;41875;55.806;38.082;2023-02-03T16:48:09;98588.78;;;2.02;70.82
55990;BME280;41875;55.806;38.082;2023-02-03T16:51:09;98542.66;;;1.70;71.27
55990;BME280;41875;55.806;38.082;2023-02-03T16:54:05;98595.63;;;2.45;70.45
55990;BME280;41875;55.806;38.082;2023-02-03T16:56:37;98587.75;;;2.14;71.01
55990;BME280;41875;55.806;38.082;2023-02-03T16:59:13;98582.47;;;2.25;70.39
55990;BME280;41875;55.806;38.082;2023-02-03T17:01:58;98597.84;;;2.50;69.82
55990;BME280;41875;55.806;38.082;2023-02-03T17:04:35;98595.22;;;2.40;69.90
55990;BME280;41875;55.806;38.082;2023-02-03T17:07:06;98591.53;;;2.00;71.13
55990;BME280;41875;55.806;38.082;2023-02-03T17:12:45;98598.66;;;2.40;69.92
55990;BME280;41875;55.806;38.082;2023-02-03T17:15:27;98595.03;;;2.10;71.09
55990;BME280;41875;55.806;38.082;2023-02-03T17:18:48;98541.63;;;1.61;71.51
55990;BME280;41875;55.806;38.082;2023-02-03T17:21:19;98589.66;;;2.54;70.26
55990;BME280;41875;55.806;38.082;2023-02-03T17:23:52;98593.38;;;2.09;71.42
55990;BME280;41875;55.806;38.082;2023-02-03T17:26:30;98581.19;;;2.41;69.99
55990;BME280;41875;55.806;38.082;2023-02-03T17:29:03;98591.59;;;2.31;69.78
55990;BME280;41875;55.806;38.082;2023-02-03T17:31:34;98591.66;;;2.41;69.95
55990;BME280;41875;55.806;38.082;2023-02-03T17:34:05;98597.00;;;1.97;70.84
55990;BME280;41875;55.806;38.082;2023-02-03T17:36:40;98559.88;;;1.72;71.03
55990;BME280;41875;55.806;38.082;2023-02-03T17:39:09;98600.44;;;2.40;70.42